To NAV CANADA Home Page Login to a new session Search on AWWS site Feedback and Comments Disclaimer Vers la page française équivalente Tips FAQ What's new on the site To the Forecasts and Observations / NOTAM section To "File a Flight Plan" website Publications and other links Update of the User's profile FIC Telephone Numbers My Weather Data Folder Route Weather Data Regional Weather Data Local Weather Data To the Forecasts and Observations / NOTAM section
Request Generated 05/25/2017 at 01:13:05 UTC . Weather information available at that time is displayed.

METAR/TAF

STEPHENVILLE/NL    

METAR CYJT 250100Z 03006KT 15SM FEW010 FEW200 06/03 A2990 RMK SC1CI1
SLP128=
METAR CYJT 250000Z 35006KT 15SM FEW010 FEW200 06/04 A2987 RMK SC1CI1
SLP116=
METAR CYJT 242300Z 34011KT 15SM FEW011 FEW200 07/04 A2985 RMK SC1CI1
SLP109=

TAF CYJT 242338Z 2500/2524 34010KT P6SM FEW020
BECMG 2502/2504 04005KT
FM250600 04005KT P6SM SCT020 TEMPO 2506/2514 BKN020
FM251400 29010KT P6SM FEW040
RMK NXT FCST BY 250600Z=
Your time UTC time
Weather data provided by Environment Canada and NAV CANADA